sensor_id;sensor_type;location;lat;lon;timestamp;P1;durP1;ratioP1;P2;durP2;ratioP2
18905;SDS011;9585;51.018;4.282;2024-02-15T00:00:55;7.82;;;3.95;;
18905;SDS011;9585;51.018;4.282;2024-02-15T00:03:23;8.65;;;3.90;;
18905;SDS011;9585;51.018;4.282;2024-02-15T00:05:51;11.95;;;4.43;;
18905;SDS011;9585;51.018;4.282;2024-02-15T00:08:21;7.40;;;3.78;;
18905;SDS011;9585;51.018;4.282;2024-02-15T00:10:50;7.60;;;3.40;;
18905;SDS011;9585;51.018;4.282;2024-02-15T00:13:18;9.10;;;3.72;;
18905;SDS011;9585;51.018;4.282;2024-02-15T00:15:48;11.60;;;3.63;;
18905;SDS011;9585;51.018;4.282;2024-02-15T00:18:16;10.27;;;3.90;;
18905;SDS011;9585;51.018;4.282;2024-02-15T00:20:44;8.20;;;3.67;;
18905;SDS011;9585;51.018;4.282;2024-02-15T00:23:12;10.13;;;4.00;;
18905;SDS011;9585;51.018;4.282;2024-02-15T00:25:43;6.55;;;3.22;;
18905;SDS011;9585;51.018;4.282;2024-02-15T00:28:11;8.85;;;3.42;;
18905;SDS011;9585;51.018;4.282;2024-02-15T00:30:39;8.63;;;3.40;;
18905;SDS011;9585;51.018;4.282;2024-02-15T00:33:07;9.07;;;3.80;;
18905;SDS011;9585;51.018;4.282;2024-02-15T00:35:35;11.07;;;4.43;;
18905;SDS011;9585;51.018;4.282;2024-02-15T00:38:03;10.63;;;3.92;;
18905;SDS011;9585;51.018;4.282;2024-02-15T00:40:32;6.30;;;3.50;;
18905;SDS011;9585;51.018;4.282;2024-02-15T00:43:02;8.63;;;3.90;;
18905;SDS011;9585;51.018;4.282;2024-02-15T00:45:30;8.25;;;4.00;;
18905;SDS011;9585;51.018;4.282;2024-02-15T00:47:58;8.68;;;4.07;;
18905;SDS011;9585;51.018;4.282;2024-02-15T00:50:25;10.02;;;3.75;;
18905;SDS011;9585;51.018;4.282;2024-02-15T00:52:52;9.65;;;3.85;;
18905;SDS011;9585;51.018;4.282;2024-02-15T00:55:20;9.60;;;5.05;;
18905;SDS011;9585;51.018;4.282;2024-02-15T00:57:49;11.27;;;4.30;;
18905;SDS011;9585;51.018;4.282;2024-02-15T01:00:18;10.52;;;4.43;;
18905;SDS011;9585;51.018;4.282;2024-02-15T01:02:47;10.85;;;4.82;;
18905;SDS011;9585;51.018;4.282;2024-02-15T01:05:15;12.07;;;4.13;;
18905;SDS011;9585;51.018;4.282;2024-02-15T01:07:44;13.00;;;4.30;;
18905;SDS011;9585;51.018;4.282;2024-02-15T01:10:14;7.63;;;3.85;;
18905;SDS011;9585;51.018;4.282;2024-02-15T01:12:42;9.93;;;4.80;;
18905;SDS011;9585;51.018;4.282;2024-02-15T01:15:10;6.93;;;4.10;;
18905;SDS011;9585;51.018;4.282;2024-02-15T01:17:40;12.90;;;5.00;;
18905;SDS011;9585;51.018;4.282;2024-02-15T01:20:09;12.10;;;4.95;;
18905;SDS011;9585;51.018;4.282;2024-02-15T01:22:37;13.45;;;4.88;;
18905;SDS011;9585;51.018;4.282;2024-02-15T01:25:06;13.48;;;4.85;;
18905;SDS011;9585;51.018;4.282;2024-02-15T01:27:34;15.05;;;4.72;;
18905;SDS011;9585;51.018;4.282;2024-02-15T01:30:01;10.82;;;4.97;;
18905;SDS011;9585;51.018;4.282;2024-02-15T01:32:30;13.68;;;4.38;;
18905;SDS011;9585;51.018;4.282;2024-02-15T01:34:59;10.48;;;4.47;;
18905;SDS011;9585;51.018;4.282;2024-02-15T01:37:27;9.43;;;4.13;;
18905;SDS011;9585;51.018;4.282;2024-02-15T01:39:55;11.48;;;4.70;;
18905;SDS011;9585;51.018;4.282;2024-02-15T01:42:23;12.52;;;4.53;;
18905;SDS011;9585;51.018;4.282;2024-02-15T01:44:51;7.88;;;4.30;;
18905;SDS011;9585;51.018;4.282;2024-02-15T01:47:19;11.95;;;4.00;;
18905;SDS011;9585;51.018;4.282;2024-02-15T01:49:48;12.75;;;4.47;;
18905;SDS011;9585;51.018;4.282;2024-02-15T01:52:18;9.15;;;4.10;;
18905;SDS011;9585;51.018;4.282;2024-02-15T01:54:46;11.25;;;3.83;;
18905;SDS011;9585;51.018;4.282;2024-02-15T01:57:14;11.43;;;4.20;;
18905;SDS011;9585;51.018;4.282;2024-02-15T01:59:43;12.32;;;4.43;;
18905;SDS011;9585;51.018;4.282;2024-02-15T02:02:11;8.55;;;3.92;;
18905;SDS011;9585;51.018;4.282;2024-02-15T02:04:41;12.27;;;3.60;;
18905;SDS011;9585;51.018;4.282;2024-02-15T02:07:09;7.28;;;3.30;;
18905;SDS011;9585;51.018;4.282;2024-02-15T02:09:39;9.88;;;3.90;;
18905;SDS011;9585;51.018;4.282;2024-02-15T02:12:07;7.93;;;3.20;;
18905;SDS011;9585;51.018;4.282;2024-02-15T02:14:36;7.93;;;3.50;;
18905;SDS011;9585;51.018;4.282;2024-02-15T02:17:11;11.68;;;3.80;;
18905;SDS011;9585;51.018;4.282;2024-02-15T02:19:41;7.25;;;3.10;;
18905;SDS011;9585;51.018;4.282;2024-02-15T02:22:09;9.00;;;3.30;;
18905;SDS011;9585;51.018;4.282;2024-02-15T02:27:36;9.07;;;3.30;;
18905;SDS011;9585;51.018;4.282;2024-02-15T02:30:04;7.30;;;3.40;;
18905;SDS011;9585;51.018;4.282;2024-02-15T02:32:40;8.98;;;3.85;;
18905;SDS011;9585;51.018;4.282;2024-02-15T02:35:08;8.20;;;3.50;;
18905;SDS011;9585;51.018;4.282;2024-02-15T02:37:38;5.82;;;3.17;;
18905;SDS011;9585;51.018;4.282;2024-02-15T02:40:08;9.55;;;3.10;;
18905;SDS011;9585;51.018;4.282;2024-02-15T02:42:46;9.45;;;3.63;;
18905;SDS011;9585;51.018;4.282;2024-02-15T02:45:15;10.68;;;3.50;;
18905;SDS011;9585;51.018;4.282;2024-02-15T02:47:45;5.70;;;3.38;;
18905;SDS011;9585;51.018;4.282;2024-02-15T02:50:13;6.00;;;3.03;;
18905;SDS011;9585;51.018;4.282;2024-02-15T02:52:41;8.57;;;3.38;;
18905;SDS011;9585;51.018;4.282;2024-02-15T02:55:11;7.88;;;3.25;;
18905;SDS011;9585;51.018;4.282;2024-02-15T02:57:39;8.20;;;3.50;;
18905;SDS011;9585;51.018;4.282;2024-02-15T03:00:09;7.10;;;3.40;;
18905;SDS011;9585;51.018;4.282;2024-02-15T03:02:40;7.93;;;3.33;;
18905;SDS011;9585;51.018;4.282;2024-02-15T03:05:08;8.13;;;3.20;;
18905;SDS011;9585;51.018;4.282;2024-02-15T03:07:37;10.23;;;3.55;;
18905;SDS011;9585;51.018;4.282;2024-02-15T03:10:07;7.90;;;3.13;;
18905;SDS011;9585;51.018;4.282;2024-02-15T03:12:41;10.45;;;3.85;;
18905;SDS011;9585;51.018;4.282;2024-02-15T03:15:12;10.27;;;3.40;;
18905;SDS011;9585;51.018;4.282;2024-02-15T03:17:41;9.55;;;3.30;;
18905;SDS011;9585;51.018;4.282;2024-02-15T03:20:09;8.82;;;3.58;;
18905;SDS011;9585;51.018;4.282;2024-02-15T03:22:47;11.70;;;3.88;;
18905;SDS011;9585;51.018;4.282;2024-02-15T03:25:18;8.90;;;3.38;;
18905;SDS011;9585;51.018;4.282;2024-02-15T03:27:50;7.35;;;3.30;;
18905;SDS011;9585;51.018;4.282;2024-02-15T03:30:18;8.90;;;3.70;;
18905;SDS011;9585;51.018;4.282;2024-02-15T03:32:46;10.90;;;3.38;;
18905;SDS011;9585;51.018;4.282;2024-02-15T03:35:17;12.00;;;4.20;;
18905;SDS011;9585;51.018;4.282;2024-02-15T03:37:46;10.55;;;4.05;;
18905;SDS011;9585;51.018;4.282;2024-02-15T03:40:17;7.13;;;3.70;;
18905;SDS011;9585;51.018;4.282;2024-02-15T03:42:45;9.93;;;3.85;;
18905;SDS011;9585;51.018;4.282;2024-02-15T03:45:15;7.75;;;3.80;;
18905;SDS011;9585;51.018;4.282;2024-02-15T03:47:43;8.18;;;3.60;;
18905;SDS011;9585;51.018;4.282;2024-02-15T03:50:12;10.32;;;4.00;;
18905;SDS011;9585;51.018;4.282;2024-02-15T03:52:41;8.77;;;3.42;;
18905;SDS011;9585;51.018;4.282;2024-02-15T03:55:09;9.10;;;3.92;;
18905;SDS011;9585;51.018;4.282;2024-02-15T03:57:37;7.55;;;3.65;;
18905;SDS011;9585;51.018;4.282;2024-02-15T04:00:08;8.40;;;3.38;;
18905;SDS011;9585;51.018;4.282;2024-02-15T04:02:40;9.68;;;3.92;;
18905;SDS011;9585;51.018;4.282;2024-02-15T04:05:09;7.00;;;3.55;;
18905;SDS011;9585;51.018;4.282;2024-02-15T04:07:37;13.15;;;3.80;;
18905;SDS011;9585;51.018;4.282;2024-02-15T04:10:05;9.05;;;3.40;;
18905;SDS011;9585;51.018;4.282;2024-02-15T04:12:34;7.50;;;3.60;;
18905;SDS011;9585;51.018;4.282;2024-02-15T04:15:02;7.63;;;3.42;;
18905;SDS011;9585;51.018;4.282;2024-02-15T04:17:33;6.43;;;3.38;;
18905;SDS011;9585;51.018;4.282;2024-02-15T04:20:02;7.05;;;2.90;;
18905;SDS011;9585;51.018;4.282;2024-02-15T04:22:31;7.28;;;2.80;;
18905;SDS011;9585;51.018;4.282;2024-02-15T04:25:02;6.47;;;3.42;;
18905;SDS011;9585;51.018;4.282;2024-02-15T04:27:31;9.43;;;3.00;;
18905;SDS011;9585;51.018;4.282;2024-02-15T04:29:59;6.10;;;3.08;;
18905;SDS011;9585;51.018;4.282;2024-02-15T04:32:29;7.82;;;3.08;;
18905;SDS011;9585;51.018;4.282;2024-02-15T04:34:59;7.57;;;3.40;;
18905;SDS011;9585;51.018;4.282;2024-02-15T04:37:32;6.82;;;3.00;;
18905;SDS011;9585;51.018;4.282;2024-02-15T04:40:00;7.07;;;2.70;;
18905;SDS011;9585;51.018;4.282;2024-02-15T04:42:33;6.45;;;2.35;;
18905;SDS011;9585;51.018;4.282;2024-02-15T04:45:04;6.03;;;2.85;;
18905;SDS011;9585;51.018;4.282;2024-02-15T04:47:35;4.97;;;2.55;;
18905;SDS011;9585;51.018;4.282;2024-02-15T04:50:03;6.18;;;2.53;;
18905;SDS011;9585;51.018;4.282;2024-02-15T04:52:33;8.10;;;2.78;;
18905;SDS011;9585;51.018;4.282;2024-02-15T04:55:01;7.63;;;3.00;;
18905;SDS011;9585;51.018;4.282;2024-02-15T04:57:30;6.50;;;2.97;;
18905;SDS011;9585;51.018;4.282;2024-02-15T05:00:00;5.75;;;2.72;;
18905;SDS011;9585;51.018;4.282;2024-02-15T05:02:34;4.65;;;2.78;;
18905;SDS011;9585;51.018;4.282;2024-02-15T05:05:06;8.48;;;3.47;;
18905;SDS011;9585;51.018;4.282;2024-02-15T05:07:36;6.97;;;3.10;;
18905;SDS011;9585;51.018;4.282;2024-02-15T05:10:05;10.07;;;3.80;;
18905;SDS011;9585;51.018;4.282;2024-02-15T05:12:35;9.20;;;3.83;;
18905;SDS011;9585;51.018;4.282;2024-02-15T05:15:04;7.68;;;3.72;;
18905;SDS011;9585;51.018;4.282;2024-02-15T05:17:36;7.82;;;3.40;;
18905;SDS011;9585;51.018;4.282;2024-02-15T05:20:06;6.30;;;3.45;;
18905;SDS011;9585;51.018;4.282;2024-02-15T05:22:39;8.57;;;3.20;;
18905;SDS011;9585;51.018;4.282;2024-02-15T05:25:17;7.65;;;3.38;;
18905;SDS011;9585;51.018;4.282;2024-02-15T05:27:48;8.40;;;3.70;;
18905;SDS011;9585;51.018;4.282;2024-02-15T05:30:16;9.73;;;3.35;;
18905;SDS011;9585;51.018;4.282;2024-02-15T05:32:45;8.57;;;3.38;;
18905;SDS011;9585;51.018;4.282;2024-02-15T05:35:15;8.20;;;3.78;;
18905;SDS011;9585;51.018;4.282;2024-02-15T05:37:51;5.03;;;3.22;;
18905;SDS011;9585;51.018;4.282;2024-02-15T05:40:21;10.13;;;3.75;;
18905;SDS011;9585;51.018;4.282;2024-02-15T05:42:55;6.75;;;3.10;;
18905;SDS011;9585;51.018;4.282;2024-02-15T05:45:30;7.32;;;3.50;;
18905;SDS011;9585;51.018;4.282;2024-02-15T05:48:04;6.95;;;3.28;;
18905;SDS011;9585;51.018;4.282;2024-02-15T05:50:38;7.30;;;3.40;;
18905;SDS011;9585;51.018;4.282;2024-02-15T05:53:09;6.65;;;3.00;;
18905;SDS011;9585;51.018;4.282;2024-02-15T05:55:43;7.07;;;2.72;;
18905;SDS011;9585;51.018;4.282;2024-02-15T05:58:11;7.85;;;2.95;;
18905;SDS011;9585;51.018;4.282;2024-02-15T06:00:39;9.10;;;2.97;;
18905;SDS011;9585;51.018;4.282;2024-02-15T06:03:15;5.97;;;2.53;;
18905;SDS011;9585;51.018;4.282;2024-02-15T06:05:47;5.40;;;2.60;;
18905;SDS011;9585;51.018;4.282;2024-02-15T06:08:17;5.00;;;2.45;;
18905;SDS011;9585;51.018;4.282;2024-02-15T06:10:48;6.30;;;2.58;;
18905;SDS011;9585;51.018;4.282;2024-02-15T06:13:17;5.13;;;2.38;;
18905;SDS011;9585;51.018;4.282;2024-02-15T06:15:45;5.90;;;2.45;;
18905;SDS011;9585;51.018;4.282;2024-02-15T06:18:18;5.50;;;2.45;;
18905;SDS011;9585;51.018;4.282;2024-02-15T06:20:46;7.72;;;2.58;;
18905;SDS011;9585;51.018;4.282;2024-02-15T06:23:17;5.95;;;2.58;;
18905;SDS011;9585;51.018;4.282;2024-02-15T06:25:46;7.97;;;2.40;;
18905;SDS011;9585;51.018;4.282;2024-02-15T06:28:14;6.50;;;2.50;;
18905;SDS011;9585;51.018;4.282;2024-02-15T06:31:07;7.07;;;2.60;;
18905;SDS011;9585;51.018;4.282;2024-02-15T06:33:52;4.85;;;2.30;;
18905;SDS011;9585;51.018;4.282;2024-02-15T06:36:39;5.65;;;2.60;;
18905;SDS011;9585;51.018;4.282;2024-02-15T06:39:25;6.03;;;2.55;;
18905;SDS011;9585;51.018;4.282;2024-02-15T06:42:06;6.07;;;2.40;;
18905;SDS011;9585;51.018;4.282;2024-02-15T06:44:34;6.40;;;2.10;;
18905;SDS011;9585;51.018;4.282;2024-02-15T06:47:02;4.65;;;2.45;;
18905;SDS011;9585;51.018;4.282;2024-02-15T06:49:30;8.00;;;2.70;;
18905;SDS011;9585;51.018;4.282;2024-02-15T06:51:58;6.20;;;2.38;;
18905;SDS011;9585;51.018;4.282;2024-02-15T06:54:28;5.57;;;2.45;;
18905;SDS011;9585;51.018;4.282;2024-02-15T06:56:56;6.03;;;2.63;;
18905;SDS011;9585;51.018;4.282;2024-02-15T06:59:24;8.70;;;2.60;;
18905;SDS011;9585;51.018;4.282;2024-02-15T07:01:52;4.80;;;2.25;;
18905;SDS011;9585;51.018;4.282;2024-02-15T07:04:20;4.85;;;2.50;;
18905;SDS011;9585;51.018;4.282;2024-02-15T07:06:51;4.95;;;2.13;;
18905;SDS011;9585;51.018;4.282;2024-02-15T07:09:19;5.82;;;2.42;;
18905;SDS011;9585;51.018;4.282;2024-02-15T07:11:51;5.55;;;2.50;;
18905;SDS011;9585;51.018;4.282;2024-02-15T07:14:19;6.97;;;3.08;;
18905;SDS011;9585;51.018;4.282;2024-02-15T07:16:47;4.80;;;2.53;;
18905;SDS011;9585;51.018;4.282;2024-02-15T07:19:16;5.88;;;2.45;;
18905;SDS011;9585;51.018;4.282;2024-02-15T07:21:44;5.25;;;2.38;;
18905;SDS011;9585;51.018;4.282;2024-02-15T07:24:12;6.38;;;2.45;;
18905;SDS011;9585;51.018;4.282;2024-02-15T07:26:40;5.22;;;2.75;;
18905;SDS011;9585;51.018;4.282;2024-02-15T07:29:09;5.85;;;2.60;;
18905;SDS011;9585;51.018;4.282;2024-02-15T07:31:37;4.35;;;2.30;;
18905;SDS011;9585;51.018;4.282;2024-02-15T07:34:05;5.55;;;2.30;;
18905;SDS011;9585;51.018;4.282;2024-02-15T07:36:33;6.90;;;2.65;;
18905;SDS011;9585;51.018;4.282;2024-02-15T07:39:01;4.50;;;2.30;;
18905;SDS011;9585;51.018;4.282;2024-02-15T07:41:30;3.88;;;2.20;;
18905;SDS011;9585;51.018;4.282;2024-02-15T07:43:58;4.22;;;2.33;;
18905;SDS011;9585;51.018;4.282;2024-02-15T07:46:28;4.65;;;2.78;;
18905;SDS011;9585;51.018;4.282;2024-02-15T07:48:56;4.82;;;2.40;;
18905;SDS011;9585;51.018;4.282;2024-02-15T07:51:23;4.40;;;2.42;;
18905;SDS011;9585;51.018;4.282;2024-02-15T07:53:51;7.25;;;2.63;;
18905;SDS011;9585;51.018;4.282;2024-02-15T07:56:19;4.75;;;2.58;;
18905;SDS011;9585;51.018;4.282;2024-02-15T07:58:47;4.35;;;2.40;;
18905;SDS011;9585;51.018;4.282;2024-02-15T08:01:17;5.38;;;2.25;;
18905;SDS011;9585;51.018;4.282;2024-02-15T08:03:47;8.23;;;2.70;;
18905;SDS011;9585;51.018;4.282;2024-02-15T08:06:16;5.85;;;2.38;;
18905;SDS011;9585;51.018;4.282;2024-02-15T08:08:44;6.32;;;2.22;;
18905;SDS011;9585;51.018;4.282;2024-02-15T08:11:13;6.75;;;2.45;;
18905;SDS011;9585;51.018;4.282;2024-02-15T08:13:45;6.90;;;2.67;;
18905;SDS011;9585;51.018;4.282;2024-02-15T08:16:15;5.18;;;2.25;;
18905;SDS011;9585;51.018;4.282;2024-02-15T08:18:43;6.22;;;2.47;;
18905;SDS011;9585;51.018;4.282;2024-02-15T08:21:12;3.58;;;2.15;;
18905;SDS011;9585;51.018;4.282;2024-02-15T08:23:41;5.47;;;2.40;;
18905;SDS011;9585;51.018;4.282;2024-02-15T08:26:09;4.43;;;2.40;;
18905;SDS011;9585;51.018;4.282;2024-02-15T08:28:37;4.82;;;2.33;;
18905;SDS011;9585;51.018;4.282;2024-02-15T08:31:05;4.88;;;2.25;;
18905;SDS011;9585;51.018;4.282;2024-02-15T08:33:35;5.53;;;2.42;;
18905;SDS011;9585;51.018;4.282;2024-02-15T08:36:04;5.20;;;2.20;;
18905;SDS011;9585;51.018;4.282;2024-02-15T08:38:36;4.63;;;2.30;;
18905;SDS011;9585;51.018;4.282;2024-02-15T08:41:04;6.40;;;2.60;;
18905;SDS011;9585;51.018;4.282;2024-02-15T08:43:35;3.30;;;2.17;;
18905;SDS011;9585;51.018;4.282;2024-02-15T08:46:05;7.10;;;2.60;;
18905;SDS011;9585;51.018;4.282;2024-02-15T08:48:33;6.57;;;2.70;;
18905;SDS011;9585;51.018;4.282;2024-02-15T08:51:02;6.95;;;2.45;;
18905;SDS011;9585;51.018;4.282;2024-02-15T08:53:31;4.90;;;2.50;;
18905;SDS011;9585;51.018;4.282;2024-02-15T08:56:00;6.90;;;2.65;;
18905;SDS011;9585;51.018;4.282;2024-02-15T08:58:28;4.93;;;2.10;;
18905;SDS011;9585;51.018;4.282;2024-02-15T09:00:57;5.20;;;2.22;;
18905;SDS011;9585;51.018;4.282;2024-02-15T09:03:25;4.80;;;2.63;;
18905;SDS011;9585;51.018;4.282;2024-02-15T09:05:53;7.47;;;2.70;;
18905;SDS011;9585;51.018;4.282;2024-02-15T09:08:21;3.80;;;2.35;;
18905;SDS011;9585;51.018;4.282;2024-02-15T09:10:49;6.85;;;2.47;;
18905;SDS011;9585;51.018;4.282;2024-02-15T09:13:19;3.75;;;2.20;;
18905;SDS011;9585;51.018;4.282;2024-02-15T09:15:48;4.03;;;2.70;;
18905;SDS011;9585;51.018;4.282;2024-02-15T09:18:15;7.60;;;3.33;;
18905;SDS011;9585;51.018;4.282;2024-02-15T09:20:43;7.38;;;3.88;;
18905;SDS011;9585;51.018;4.282;2024-02-15T09:23:14;8.95;;;4.10;;
18905;SDS011;9585;51.018;4.282;2024-02-15T09:25:42;7.72;;;4.25;;
18905;SDS011;9585;51.018;4.282;2024-02-15T09:28:09;6.82;;;3.67;;
18905;SDS011;9585;51.018;4.282;2024-02-15T09:30:40;8.30;;;3.97;;
18905;SDS011;9585;51.018;4.282;2024-02-15T09:33:08;6.20;;;3.47;;
18905;SDS011;9585;51.018;4.282;2024-02-15T09:35:35;6.45;;;3.58;;
18905;SDS011;9585;51.018;4.282;2024-02-15T09:38:04;5.75;;;3.17;;
18905;SDS011;9585;51.018;4.282;2024-02-15T09:40:34;8.38;;;4.05;;
18905;SDS011;9585;51.018;4.282;2024-02-15T09:43:01;6.43;;;3.10;;
18905;SDS011;9585;51.018;4.282;2024-02-15T09:45:30;7.18;;;3.38;;
18905;SDS011;9585;51.018;4.282;2024-02-15T09:48:03;6.43;;;3.38;;
18905;SDS011;9585;51.018;4.282;2024-02-15T09:50:34;6.00;;;2.90;;
18905;SDS011;9585;51.018;4.282;2024-02-15T09:53:03;5.78;;;3.10;;
18905;SDS011;9585;51.018;4.282;2024-02-15T09:55:33;6.75;;;3.03;;
18905;SDS011;9585;51.018;4.282;2024-02-15T09:58:01;6.15;;;3.17;;
18905;SDS011;9585;51.018;4.282;2024-02-15T10:00:31;7.72;;;3.20;;
18905;SDS011;9585;51.018;4.282;2024-02-15T10:03:02;5.13;;;3.00;;
18905;SDS011;9585;51.018;4.282;2024-02-15T10:05:33;5.30;;;2.17;;
18905;SDS011;9585;51.018;4.282;2024-02-15T10:08:01;4.70;;;2.20;;
18905;SDS011;9585;51.018;4.282;2024-02-15T10:10:30;4.20;;;3.00;;
18905;SDS011;9585;51.018;4.282;2024-02-15T10:12:59;4.70;;;2.33;;
18905;SDS011;9585;51.018;4.282;2024-02-15T10:15:27;4.15;;;2.20;;
18905;SDS011;9585;51.018;4.282;2024-02-15T10:17:59;5.07;;;2.13;;
18905;SDS011;9585;51.018;4.282;2024-02-15T10:20:30;3.58;;;2.40;;
18905;SDS011;9585;51.018;4.282;2024-02-15T10:23:09;3.60;;;2.30;;
18905;SDS011;9585;51.018;4.282;2024-02-15T10:25:37;4.53;;;2.05;;
18905;SDS011;9585;51.018;4.282;2024-02-15T10:28:06;3.65;;;1.90;;
18905;SDS011;9585;51.018;4.282;2024-02-15T10:30:34;4.57;;;1.98;;
18905;SDS011;9585;51.018;4.282;2024-02-15T10:33:04;4.30;;;2.00;;
18905;SDS011;9585;51.018;4.282;2024-02-15T10:35:33;3.60;;;2.25;;
18905;SDS011;9585;51.018;4.282;2024-02-15T10:38:05;5.75;;;2.28;;
18905;SDS011;9585;51.018;4.282;2024-02-15T10:40:35;3.80;;;2.25;;
18905;SDS011;9585;51.018;4.282;2024-02-15T10:43:03;3.70;;;2.05;;
18905;SDS011;9585;51.018;4.282;2024-02-15T10:45:31;3.17;;;1.70;;
18905;SDS011;9585;51.018;4.282;2024-02-15T10:48:00;3.38;;;1.88;;
18905;SDS011;9585;51.018;4.282;2024-02-15T10:50:32;2.60;;;1.77;;
18905;SDS011;9585;51.018;4.282;2024-02-15T10:52:59;6.97;;;4.10;;
18905;SDS011;9585;51.018;4.282;2024-02-15T10:55:35;5.72;;;3.90;;
18905;SDS011;9585;51.018;4.282;2024-02-15T10:58:05;2.95;;;2.00;;
18905;SDS011;9585;51.018;4.282;2024-02-15T11:00:34;2.63;;;1.63;;
18905;SDS011;9585;51.018;4.282;2024-02-15T11:03:05;3.72;;;1.65;;
18905;SDS011;9585;51.018;4.282;2024-02-15T11:05:40;2.90;;;1.70;;
18905;SDS011;9585;51.018;4.282;2024-02-15T11:08:11;3.35;;;1.60;;
18905;SDS011;9585;51.018;4.282;2024-02-15T11:10:39;2.95;;;2.10;;
18905;SDS011;9585;51.018;4.282;2024-02-15T11:13:09;3.60;;;1.90;;
18905;SDS011;9585;51.018;4.282;2024-02-15T11:15:45;3.85;;;1.60;;
18905;SDS011;9585;51.018;4.282;2024-02-15T11:21:26;2.65;;;1.50;;
18905;SDS011;9585;51.018;4.282;2024-02-15T11:24:26;4.45;;;1.75;;
18905;SDS011;9585;51.018;4.282;2024-02-15T11:26:57;3.58;;;1.70;;
18905;SDS011;9585;51.018;4.282;2024-02-15T11:35:05;3.83;;;1.50;;
18905;SDS011;9585;51.018;4.282;2024-02-15T11:43:47;2.85;;;1.40;;
18905;SDS011;9585;51.018;4.282;2024-02-15T11:46:24;2.80;;;1.20;;
18905;SDS011;9585;51.018;4.282;2024-02-15T11:48:55;1.67;;;1.20;;
18905;SDS011;9585;51.018;4.282;2024-02-15T11:51:30;2.13;;;1.25;;
18905;SDS011;9585;51.018;4.282;2024-02-15T11:54:04;3.20;;;1.30;;
18905;SDS011;9585;51.018;4.282;2024-02-15T11:56:32;3.58;;;1.60;;
18905;SDS011;9585;51.018;4.282;2024-02-15T11:59:17;2.92;;;1.65;;
18905;SDS011;9585;51.018;4.282;2024-02-15T12:01:55;3.90;;;1.70;;
18905;SDS011;9585;51.018;4.282;2024-02-15T12:04:40;1.90;;;1.00;;
18905;SDS011;9585;51.018;4.282;2024-02-15T12:07:26;3.95;;;1.65;;
18905;SDS011;9585;51.018;4.282;2024-02-15T12:10:16;2.25;;;0.85;;
18905;SDS011;9585;51.018;4.282;2024-02-15T12:13:02;3.15;;;1.70;;
18905;SDS011;9585;51.018;4.282;2024-02-15T12:15:57;3.53;;;1.90;;
18905;SDS011;9585;51.018;4.282;2024-02-15T12:18:42;2.15;;;1.23;;
18905;SDS011;9585;51.018;4.282;2024-02-15T12:21:12;1.40;;;1.05;;
18905;SDS011;9585;51.018;4.282;2024-02-15T12:23:43;4.35;;;2.33;;
18905;SDS011;9585;51.018;4.282;2024-02-15T12:26:12;1.73;;;1.23;;
18905;SDS011;9585;51.018;4.282;2024-02-15T12:28:40;2.70;;;1.20;;
18905;SDS011;9585;51.018;4.282;2024-02-15T12:31:09;2.60;;;1.20;;
18905;SDS011;9585;51.018;4.282;2024-02-15T12:33:38;1.40;;;1.10;;
18905;SDS011;9585;51.018;4.282;2024-02-15T12:36:07;2.17;;;1.30;;
18905;SDS011;9585;51.018;4.282;2024-02-15T12:38:35;1.70;;;1.30;;
18905;SDS011;9585;51.018;4.282;2024-02-15T12:41:04;3.45;;;1.60;;
18905;SDS011;9585;51.018;4.282;2024-02-15T12:43:52;3.20;;;2.40;;
18905;SDS011;9585;51.018;4.282;2024-02-15T12:46:20;2.47;;;1.98;;
18905;SDS011;9585;51.018;4.282;2024-02-15T12:48:47;1.70;;;1.25;;
18905;SDS011;9585;51.018;4.282;2024-02-15T12:51:18;1.45;;;1.00;;
18905;SDS011;9585;51.018;4.282;2024-02-15T12:53:46;4.25;;;1.52;;
18905;SDS011;9585;51.018;4.282;2024-02-15T12:56:21;2.33;;;1.13;;
18905;SDS011;9585;51.018;4.282;2024-02-15T12:58:49;2.20;;;1.23;;
18905;SDS011;9585;51.018;4.282;2024-02-15T13:01:17;2.03;;;1.20;;
18905;SDS011;9585;51.018;4.282;2024-02-15T13:03:45;2.63;;;1.48;;
18905;SDS011;9585;51.018;4.282;2024-02-15T13:06:13;1.88;;;1.10;;
18905;SDS011;9585;51.018;4.282;2024-02-15T13:08:49;5.32;;;1.90;;
18905;SDS011;9585;51.018;4.282;2024-02-15T13:11:17;4.03;;;1.67;;
18905;SDS011;9585;51.018;4.282;2024-02-15T13:13:47;5.50;;;2.22;;
18905;SDS011;9585;51.018;4.282;2024-02-15T13:16:17;2.85;;;2.10;;
18905;SDS011;9585;51.018;4.282;2024-02-15T13:18:45;2.42;;;1.60;;
18905;SDS011;9585;51.018;4.282;2024-02-15T13:21:13;3.33;;;1.40;;
18905;SDS011;9585;51.018;4.282;2024-02-15T13:23:42;3.53;;;1.80;;
18905;SDS011;9585;51.018;4.282;2024-02-15T13:26:10;3.35;;;1.75;;
18905;SDS011;9585;51.018;4.282;2024-02-15T13:28:40;3.80;;;1.60;;
18905;SDS011;9585;51.018;4.282;2024-02-15T13:31:11;4.47;;;1.63;;
18905;SDS011;9585;51.018;4.282;2024-02-15T13:33:38;4.28;;;2.05;;
18905;SDS011;9585;51.018;4.282;2024-02-15T13:36:06;3.20;;;1.70;;
18905;SDS011;9585;51.018;4.282;2024-02-15T13:38:36;2.85;;;1.60;;
18905;SDS011;9585;51.018;4.282;2024-02-15T13:41:04;4.43;;;1.80;;
18905;SDS011;9585;51.018;4.282;2024-02-15T13:43:32;3.75;;;1.90;;
18905;SDS011;9585;51.018;4.282;2024-02-15T13:46:00;3.20;;;1.70;;
18905;SDS011;9585;51.018;4.282;2024-02-15T13:48:31;3.67;;;2.03;;
18905;SDS011;9585;51.018;4.282;2024-02-15T13:50:59;3.38;;;1.73;;
18905;SDS011;9585;51.018;4.282;2024-02-15T13:53:27;2.80;;;1.73;;
18905;SDS011;9585;51.018;4.282;2024-02-15T13:55:55;3.97;;;2.03;;
18905;SDS011;9585;51.018;4.282;2024-02-15T13:58:23;1.60;;;1.38;;
18905;SDS011;9585;51.018;4.282;2024-02-15T14:00:51;3.60;;;1.50;;
18905;SDS011;9585;51.018;4.282;2024-02-15T14:03:19;3.13;;;1.10;;
18905;SDS011;9585;51.018;4.282;2024-02-15T14:05:49;2.00;;;1.00;;
18905;SDS011;9585;51.018;4.282;2024-02-15T14:08:16;2.72;;;1.10;;
18905;SDS011;9585;51.018;4.282;2024-02-15T14:10:45;2.53;;;1.10;;
18905;SDS011;9585;51.018;4.282;2024-02-15T14:13:13;2.78;;;1.20;;
18905;SDS011;9585;51.018;4.282;2024-02-15T14:15:41;2.47;;;0.93;;
18905;SDS011;9585;51.018;4.282;2024-02-15T14:18:10;1.90;;;0.98;;
18905;SDS011;9585;51.018;4.282;2024-02-15T14:20:40;1.85;;;1.00;;
18905;SDS011;9585;51.018;4.282;2024-02-15T14:23:10;2.42;;;1.00;;
18905;SDS011;9585;51.018;4.282;2024-02-15T14:25:40;1.75;;;1.02;;
18905;SDS011;9585;51.018;4.282;2024-02-15T14:28:08;1.95;;;1.00;;
18905;SDS011;9585;51.018;4.282;2024-02-15T14:30:36;1.30;;;1.00;;
18905;SDS011;9585;51.018;4.282;2024-02-15T14:33:22;1.33;;;0.85;;
18905;SDS011;9585;51.018;4.282;2024-02-15T14:35:51;2.05;;;1.10;;
18905;SDS011;9585;51.018;4.282;2024-02-15T14:38:22;1.60;;;0.90;;
18905;SDS011;9585;51.018;4.282;2024-02-15T14:40:50;1.90;;;0.88;;
18905;SDS011;9585;51.018;4.282;2024-02-15T14:43:19;1.73;;;1.10;;
18905;SDS011;9585;51.018;4.282;2024-02-15T14:45:47;2.88;;;1.40;;
18905;SDS011;9585;51.018;4.282;2024-02-15T14:48:16;1.55;;;1.00;;
18905;SDS011;9585;51.018;4.282;2024-02-15T14:50:45;1.48;;;1.10;;
18905;SDS011;9585;51.018;4.282;2024-02-15T14:53:15;1.65;;;1.10;;
18905;SDS011;9585;51.018;4.282;2024-02-15T14:55:45;2.55;;;1.15;;
18905;SDS011;9585;51.018;4.282;2024-02-15T14:58:13;2.83;;;1.13;;
18905;SDS011;9585;51.018;4.282;2024-02-15T15:00:45;1.00;;;0.80;;
18905;SDS011;9585;51.018;4.282;2024-02-15T15:03:15;2.45;;;1.10;;
18905;SDS011;9585;51.018;4.282;2024-02-15T15:05:45;1.92;;;0.80;;
18905;SDS011;9585;51.018;4.282;2024-02-15T15:08:30;2.92;;;1.05;;
18905;SDS011;9585;51.018;4.282;2024-02-15T15:11:16;4.05;;;2.05;;
18905;SDS011;9585;51.018;4.282;2024-02-15T15:14:01;4.28;;;2.70;;
18905;SDS011;9585;51.018;4.282;2024-02-15T15:16:29;4.95;;;3.72;;
18905;SDS011;9585;51.018;4.282;2024-02-15T15:18:57;3.65;;;2.63;;
18905;SDS011;9585;51.018;4.282;2024-02-15T15:21:25;2.75;;;2.10;;
18905;SDS011;9585;51.018;4.282;2024-02-15T15:23:53;3.20;;;2.20;;
18905;SDS011;9585;51.018;4.282;2024-02-15T15:26:23;3.88;;;2.28;;
18905;SDS011;9585;51.018;4.282;2024-02-15T15:28:51;4.32;;;3.42;;
18905;SDS011;9585;51.018;4.282;2024-02-15T15:31:20;4.18;;;3.40;;
18905;SDS011;9585;51.018;4.282;2024-02-15T15:33:48;4.20;;;2.83;;
18905;SDS011;9585;51.018;4.282;2024-02-15T15:36:16;3.25;;;2.80;;